Iliamna Airport
PAIL : rendu visible

Aérodrome :











RETROUVEZ-NOUS SUR...

 
LOGIN :

S'inscrire | Disclaimer

   EN    FR    IT 

 









Légende :    VFR   VFR Marginal   IFR   IFR Intensif   IFR Très Intensif
Visi : 
Plafond : 
>= 8 km
>= 3000ft
5 à 8 km
1000 à 3000 ft
1500m à 5 km
500 à 1000 ft
800 à 1500m
200 à 500 ft
< 800m
< 200 ft
Symboles :   Orages  Brouillard  Fortes neiges  Fortes précipitations  Vent > 20 kt






- Altitude de l'aérodrome : 192 ft
- Code IATA : ILI


PAIL - Iliamna

DERNIER METAR :
  • 061053Z AUTO 24010KT 10SM -RA OVC007 07/07 A2993 RMK SLP137 P0000 T00720072 TSNO VIA AUTODIAL

METARs EXPIRÉS :
  • 060953Z AUTO 24009G16KT 10SM -RA OVC007 08/07 A2994 RMK RAE29B38 SLP139 P0000 T00780072 TSNO VIA AUTODIAL
  • 060853Z AUTO 24009KT 10SM -RA SCT010 OVC032 08/07 A2994 RMK SLP141 P0000 60000 T00780067 401000050 56008 TSNO VIA AUTODIAL

TAF PAIL
Valide du 06 à 12h jusqu'au 07 à 12h UTC


061125Z 0612/0712 26005KT P6SM VCSH BKN007 OVC015
TEMPO 0612/0616 SCT007 OVC015
FM062100 24005KT P6SM OVC015
FM070000 25006KT P6SM BKN050
FIR PAZA / Amérique du Nord



MET'MAP, la Météo Aéronautique d'un coup d'oeil ! - Copyright ORBIFLY Décembre 2007 - Disclaimer

ORBIFLY MET'MAP TEAM :

Programmation & Développement : Alexandra Zaïnal
Sur une idée originale de : Baudouin d'Aumeries
Assistance à la programmation : Marc-Olivier Méhu
Soutien technique & logistique : Manuel Goepfert

Contact : metmap@orbifly.com




SOURCES & CREDITS :

   NOAA       Earth
Advisory